Time,TemperatureF,DewpointF,PressureIn,WindDirection,WindDirectionDegrees,WindSpeedMPH,WindSpeedGustMPH,Humidity,HourlyPrecipIn,Conditions,Clouds,dailyrainin,SoftwareType,DateUTC
2013-07-13 00:00:00,51.9,49.4,30.07,North,350,0.0,0.0,91,0.00,,,0.00,Wunderground v.1.15,2013-07-13 07:00:00,
2013-07-13 00:10:00,51.6,49.4,30.07,North,350,0.0,0.0,92,0.00,,,0.00,Wunderground v.1.15,2013-07-13 07:10:00,
2013-07-13 00:20:00,51.2,49.0,30.07,North,350,0.0,0.0,92,0.00,,,0.00,Wunderground v.1.15,2013-07-13 07:20:00,
2013-07-13 00:30:00,50.9,48.9,30.07,North,350,0.0,0.0,93,0.00,,,0.00,Wunderground v.1.15,2013-07-13 07:30:00,
2013-07-13 00:40:00,50.6,48.7,30.07,North,350,0.0,0.0,93,0.00,,,0.00,Wunderground v.1.15,2013-07-13 07:40:00,
2013-07-13 00:45:00,50.5,48.8,30.07,North,350,0.0,0.0,94,0.00,,,0.00,Wunderground v.1.15,2013-07-13 07:45:00,
2013-07-13 00:55:00,50.4,48.7,30.07,North,350,0.0,0.0,94,0.00,,,0.00,Wunderground v.1.15,2013-07-13 07:55:00,
2013-07-13 01:00:00,50.2,48.5,30.07,North,350,0.0,0.0,94,0.00,,,0.00,Wunderground v.1.15,2013-07-13 08:00:00,
2013-07-13 01:10:00,50.0,48.3,30.07,North,350,0.0,0.0,94,0.00,,,0.00,Wunderground v.1.15,2013-07-13 08:10:00,
2013-07-13 01:20:00,49.5,47.8,30.07,North,350,0.0,0.0,94,0.00,,,0.00,Wunderground v.1.15,2013-07-13 08:20:00,
2013-07-13 01:25:00,49.3,47.6,30.07,North,350,0.0,0.0,94,0.00,,,0.00,Wunderground v.1.15,2013-07-13 08:25:00,
2013-07-13 01:35:00,48.8,47.2,30.07,North,350,0.0,0.0,94,0.00,,,0.00,Wunderground v.1.15,2013-07-13 08:35:00,
2013-07-13 01:45:00,48.5,47.1,30.07,North,350,0.0,0.0,95,0.00,,,0.00,Wunderground v.1.15,2013-07-13 08:45:00,
2013-07-13 01:55:00,48.1,46.7,30.07,North,350,0.0,0.0,95,0.00,,,0.00,Wunderground v.1.15,2013-07-13 08:55:00,
2013-07-13 02:00:00,47.9,46.5,30.07,North,350,0.0,0.0,95,0.00,,,0.00,Wunderground v.1.15,2013-07-13 09:00:00,
2013-07-13 02:10:00,47.6,46.2,30.07,North,350,0.0,0.0,95,0.00,,,0.00,Wunderground v.1.15,2013-07-13 09:10:00,
2013-07-13 02:20:00,47.5,46.4,30.07,North,350,0.0,0.0,96,0.00,,,0.00,Wunderground v.1.15,2013-07-13 09:20:00,
2013-07-13 02:30:00,47.4,46.3,30.06,North,350,0.0,0.0,96,0.00,,,0.00,Wunderground v.1.15,2013-07-13 09:30:00,
2013-07-13 02:35:00,47.3,46.2,30.06,North,350,0.0,0.0,96,0.00,,,0.00,Wunderground v.1.15,2013-07-13 09:35:00,
2013-07-13 02:45:00,47.0,45.9,30.07,North,350,0.0,0.0,96,0.00,,,0.00,Wunderground v.1.15,2013-07-13 09:45:00,
2013-07-13 02:55:00,46.8,45.7,30.07,North,350,0.0,0.0,96,0.00,,,0.00,Wunderground v.1.15,2013-07-13 09:55:00,
2013-07-13 03:00:00,46.7,45.6,30.07,North,350,0.0,0.0,96,0.00,,,0.00,Wunderground v.1.15,2013-07-13 10:00:00,
2013-07-13 03:10:00,46.4,45.3,30.07,North,350,0.0,0.0,96,0.00,,,0.00,Wunderground v.1.15,2013-07-13 10:10:00,
2013-07-13 03:20:00,46.4,45.6,30.07,North,350,0.0,0.0,97,0.00,,,0.00,Wunderground v.1.15,2013-07-13 10:20:00,
2013-07-13 03:30:00,46.4,45.6,30.07,North,350,0.0,0.0,97,0.00,,,0.00,Wunderground v.1.15,2013-07-13 10:30:00,
2013-07-13 03:35:00,46.4,45.6,30.07,North,350,0.0,0.0,97,0.00,,,0.00,Wunderground v.1.15,2013-07-13 10:35:00,
2013-07-13 03:45:00,46.3,45.5,30.07,North,350,0.0,0.0,97,0.00,,,0.00,Wunderground v.1.15,2013-07-13 10:45:00,
2013-07-13 03:55:00,46.3,45.5,30.06,North,350,0.0,0.0,97,0.00,,,0.00,Wunderground v.1.15,2013-07-13 10:55:00,
2013-07-13 04:00:00,46.3,45.5,30.06,North,350,0.0,0.0,97,0.00,,,0.00,Wunderground v.1.15,2013-07-13 11:00:00,
2013-07-13 04:10:00,46.4,45.6,30.06,North,350,0.0,0.0,97,0.00,,,0.00,Wunderground v.1.15,2013-07-13 11:10:00,
2013-07-13 04:20:00,46.3,45.5,30.06,North,350,0.0,0.0,97,0.00,,,0.00,Wunderground v.1.15,2013-07-13 11:20:00,
2013-07-13 04:30:00,46.2,45.4,30.06,North,350,0.0,0.0,97,0.00,,,0.00,Wunderground v.1.15,2013-07-13 11:30:00,
2013-07-13 04:35:00,46.0,45.2,30.06,North,350,0.0,0.0,97,0.00,,,0.00,Wunderground v.1.15,2013-07-13 11:35:00,
2013-07-13 04:45:00,45.8,45.0,30.06,North,350,0.0,0.0,97,0.00,,,0.00,Wunderground v.1.15,2013-07-13 11:45:00,
2013-07-13 04:55:00,46.0,45.2,30.06,North,350,0.0,0.0,97,0.00,,,0.00,Wunderground v.1.15,2013-07-13 11:55:00,
2013-07-13 05:00:00,46.1,45.3,30.06,North,350,0.0,0.0,97,0.00,,,0.00,Wunderground v.1.15,2013-07-13 12:00:00,
2013-07-13 05:10:00,46.3,45.8,30.06,North,350,0.0,0.0,98,0.00,,,0.00,Wunderground v.1.15,2013-07-13 12:10:00,
2013-07-13 05:20:00,46.6,45.8,30.06,North,350,0.0,0.0,97,0.00,,,0.00,Wunderground v.1.15,2013-07-13 12:20:00,
2013-07-13 05:30:00,46.7,46.2,30.06,North,350,0.0,0.0,98,0.00,,,0.00,Wunderground v.1.15,2013-07-13 12:30:00,
2013-07-13 05:35:00,46.7,45.9,30.06,North,350,0.0,0.0,97,0.00,,,0.00,Wunderground v.1.15,2013-07-13 12:35:00,
2013-07-13 05:45:00,46.7,46.2,30.06,North,350,0.0,0.0,98,0.00,,,0.00,Wunderground v.1.15,2013-07-13 12:45:00,
2013-07-13 05:55:00,46.7,46.2,30.06,North,350,0.0,0.0,98,0.00,,,0.00,Wunderground v.1.15,2013-07-13 12:55:00,
2013-07-13 06:00:00,46.7,46.2,30.06,North,350,0.0,0.0,98,0.00,,,0.00,Wunderground v.1.15,2013-07-13 13:00:00,
2013-07-13 06:10:00,46.7,46.2,30.06,North,350,0.0,0.0,98,0.00,,,0.00,Wunderground v.1.15,2013-07-13 13:10:00,
2013-07-13 06:20:00,46.7,45.9,30.06,North,350,0.0,0.0,97,0.00,,,0.00,Wunderground v.1.15,2013-07-13 13:20:00,
2013-07-13 06:30:00,46.8,46.3,30.07,North,350,0.0,0.0,98,0.00,,,0.00,Wunderground v.1.15,2013-07-13 13:30:00,
2013-07-13 06:35:00,46.8,46.3,30.07,North,350,0.0,0.0,98,0.00,,,0.00,Wunderground v.1.15,2013-07-13 13:35:00,
2013-07-13 06:45:00,46.9,46.4,30.07,North,350,0.0,0.0,98,0.00,,,0.00,Wunderground v.1.15,2013-07-13 13:45:00,
2013-07-13 06:55:00,47.0,46.5,30.07,North,360,0.0,0.0,98,0.00,,,0.00,Wunderground v.1.15,2013-07-13 13:55:00,
2013-07-13 07:00:00,47.1,46.6,30.07,North,360,0.0,0.0,98,0.00,,,0.00,Wunderground v.1.15,2013-07-13 14:00:00,
2013-07-13 07:10:00,47.2,46.7,30.07,North,360,0.0,0.0,98,0.00,,,0.00,Wunderground v.1.15,2013-07-13 14:10:00,
2013-07-13 07:20:00,47.5,47.0,30.07,NE,40,0.0,0.0,98,0.00,,,0.00,Wunderground v.1.15,2013-07-13 14:20:00,
2013-07-13 07:30:00,47.7,47.2,30.07,NW,309,0.0,0.0,98,0.00,,,0.00,Wunderground v.1.15,2013-07-13 14:30:00,
2013-07-13 07:35:00,47.7,47.2,30.07,North,350,0.0,0.0,98,0.00,,,0.00,Wunderground v.1.15,2013-07-13 14:35:00,
2013-07-13 07:45:00,47.9,47.4,30.07,North,350,0.0,0.0,98,0.00,,,0.00,Wunderground v.1.15,2013-07-13 14:45:00,
2013-07-13 07:55:00,48.1,47.6,30.08,North,355,0.0,0.0,98,0.00,,,0.00,Wunderground v.1.15,2013-07-13 14:55:00,
2013-07-13 08:00:00,48.4,47.9,30.07,NE,53,0.0,0.0,98,0.00,,,0.00,Wunderground v.1.15,2013-07-13 15:00:00,
2013-07-13 08:10:00,48.7,48.2,30.07,NE,53,0.0,0.0,98,0.00,,,0.00,Wunderground v.1.15,2013-07-13 15:10:00,
2013-07-13 08:20:00,48.8,48.3,30.07,NE,53,0.0,0.0,98,0.00,,,0.00,Wunderground v.1.15,2013-07-13 15:20:00,
2013-07-13 08:30:00,49.0,48.5,30.07,NE,53,0.0,0.0,98,0.00,,,0.00,Wunderground v.1.15,2013-07-13 15:30:00,
2013-07-13 08:35:00,49.4,48.9,30.07,NE,53,0.0,0.0,98,0.00,,,0.00,Wunderground v.1.15,2013-07-13 15:35:00,
2013-07-13 08:45:00,49.8,49.3,30.07,North,355,0.0,0.0,98,0.00,,,0.00,Wunderground v.1.15,2013-07-13 15:45:00,
2013-07-13 08:50:00,49.7,49.2,30.07,NW,321,0.0,0.0,98,0.00,,,0.00,Wunderground v.1.15,2013-07-13 15:50:00,
2013-07-13 09:00:00,50.6,50.1,30.07,NNW,342,0.0,0.0,98,0.00,,,0.00,Wunderground v.1.15,2013-07-13 16:00:00,
2013-07-13 09:10:00,51.7,50.9,30.07,NNW,342,0.0,0.0,97,0.00,,,0.00,Wunderground v.1.15,2013-07-13 16:10:00,
2013-07-13 09:20:00,53.4,50.8,30.07,WNW,298,1.0,2.0,91,0.00,,,0.00,Wunderground v.1.15,2013-07-13 16:20:00,
2013-07-13 09:30:00,54.7,51.5,30.07,NW,308,1.0,2.0,89,0.00,,,0.00,Wunderground v.1.15,2013-07-13 16:30:00,
2013-07-13 09:35:00,55.5,52.0,30.07,North,11,1.0,3.0,88,0.00,,,0.00,Wunderground v.1.15,2013-07-13 16:35:00,
2013-07-13 09:45:00,56.9,52.4,30.06,NW,309,2.0,3.0,85,0.00,,,0.00,Wunderground v.1.15,2013-07-13 16:45:00,
2013-07-13 09:55:00,58.5,53.7,30.06,West,280,2.0,3.0,84,0.00,,,0.00,Wunderground v.1.15,2013-07-13 16:55:00,
2013-07-13 10:00:00,59.7,54.9,30.05,NNE,32,2.0,2.0,84,0.00,,,0.00,Wunderground v.1.15,2013-07-13 17:00:00,
2013-07-13 10:10:00,61.6,54.3,30.05,NNW,332,2.0,2.0,77,0.00,,,0.00,Wunderground v.1.15,2013-07-13 17:10:00,
2013-07-13 10:20:00,62.9,54.1,30.04,WSW,250,2.0,2.0,73,0.00,,,0.00,Wunderground v.1.15,2013-07-13 17:20:00,
2013-07-13 10:30:00,64.2,55.7,30.04,NE,53,1.0,2.0,74,0.00,,,0.00,Wunderground v.1.15,2013-07-13 17:30:00,
2013-07-13 10:35:00,65.1,54.7,30.04,NNW,334,2.0,2.0,69,0.00,,,0.00,Wunderground v.1.15,2013-07-13 17:35:00,
2013-07-13 10:45:00,65.7,54.8,30.04,NNW,329,3.0,5.0,68,0.00,,,0.00,Wunderground v.1.15,2013-07-13 17:45:00,
2013-07-13 10:55:00,66.8,55.5,30.03,NNW,331,2.0,2.0,67,0.00,,,0.00,Wunderground v.1.15,2013-07-13 17:55:00,
2013-07-13 11:00:00,67.6,56.2,30.03,WNW,292,2.0,2.0,67,0.00,,,0.00,Wunderground v.1.15,2013-07-13 18:00:00,
2013-07-13 11:10:00,68.8,56.1,30.03,WNW,284,3.0,3.0,64,0.00,,,0.00,Wunderground v.1.15,2013-07-13 18:10:00,
2013-07-13 11:20:00,69.9,55.8,30.02,North,355,3.0,5.0,61,0.00,,,0.00,Wunderground v.1.15,2013-07-13 18:20:00,
2013-07-13 11:30:00,70.6,56.5,30.02,NW,309,5.0,5.0,61,0.00,,,0.00,Wunderground v.1.15,2013-07-13 18:30:00,
2013-07-13 11:35:00,70.7,56.1,30.02,WNW,298,4.0,6.0,60,0.00,,,0.00,Wunderground v.1.15,2013-07-13 18:35:00,
2013-07-13 11:45:00,71.6,57.0,30.02,NNW,340,4.0,9.0,60,0.00,,,0.00,Wunderground v.1.15,2013-07-13 18:45:00,
2013-07-13 11:55:00,72.4,56.8,30.01,NW,320,4.0,6.0,58,0.00,,,0.00,Wunderground v.1.15,2013-07-13 18:55:00,
2013-07-13 12:00:00,73.2,56.1,30.01,NNW,347,3.0,3.0,55,0.00,,,0.00,Wunderground v.1.15,2013-07-13 19:00:00,
2013-07-13 12:10:00,73.3,57.1,30.01,NW,306,4.0,4.0,57,0.00,,,0.00,Wunderground v.1.15,2013-07-13 19:10:00,
2013-07-13 12:20:00,73.0,57.8,30.01,WNW,296,5.0,10.0,59,0.00,,,0.00,Wunderground v.1.15,2013-07-13 19:20:00,
2013-07-13 12:30:00,72.6,56.5,30.01,WNW,293,5.0,8.0,57,0.00,,,0.00,Wunderground v.1.15,2013-07-13 19:30:00,
2013-07-13 12:35:00,72.5,56.4,30.01,North,350,6.0,6.0,57,0.00,,,0.00,Wunderground v.1.15,2013-07-13 19:35:00,
2013-07-13 12:45:00,73.1,57.4,30.01,NW,305,5.0,10.0,58,0.00,,,0.00,Wunderground v.1.15,2013-07-13 19:45:00,
2013-07-13 12:55:00,72.4,55.8,30.01,NNW,333,7.0,7.0,56,0.00,,,0.00,Wunderground v.1.15,2013-07-13 19:55:00,
2013-07-13 13:00:00,72.4,56.3,30.01,West,278,6.0,7.0,57,0.00,,,0.00,Wunderground v.1.15,2013-07-13 20:00:00,
2013-07-13 13:10:00,72.1,55.0,30.01,NW,304,6.0,6.0,55,0.00,,,0.00,Wunderground v.1.15,2013-07-13 20:10:00,
2013-07-13 13:20:00,72.7,54.6,30.00,NNE,30,5.0,5.0,53,0.00,,,0.00,Wunderground v.1.15,2013-07-13 20:20:00,
2013-07-13 13:30:00,72.3,54.7,30.00,NW,304,6.0,6.0,54,0.00,,,0.00,Wunderground v.1.15,2013-07-13 20:30:00,
2013-07-13 13:35:00,72.0,53.9,30.00,NW,326,7.0,7.0,53,0.00,,,0.00,Wunderground v.1.15,2013-07-13 20:35:00,
2013-07-13 13:45:00,71.7,55.2,30.00,NNW,333,5.0,8.0,56,0.00,,,0.00,Wunderground v.1.15,2013-07-13 20:45:00,
2013-07-13 13:55:00,71.9,54.3,30.00,West,263,5.0,6.0,54,0.00,,,0.00,Wunderground v.1.15,2013-07-13 20:55:00,
2013-07-13 14:00:00,71.9,53.8,30.00,SW,220,5.0,5.0,53,0.00,,,0.00,Wunderground v.1.15,2013-07-13 21:00:00,
2013-07-13 14:10:00,71.8,53.7,30.00,NW,318,5.0,5.0,53,0.00,,,0.00,Wunderground v.1.15,2013-07-13 21:10:00,
2013-07-13 14:20:00,71.7,52.6,30.00,NNW,344,5.0,5.0,51,0.00,,,0.00,Wunderground v.1.15,2013-07-13 21:20:00,
2013-07-13 14:30:00,71.7,53.1,30.00,WNW,301,5.0,5.0,52,0.00,,,0.00,Wunderground v.1.15,2013-07-13 21:30:00,
2013-07-13 14:40:00,71.5,52.4,30.00,NW,309,5.0,10.0,51,0.00,,,0.00,Wunderground v.1.15,2013-07-13 21:40:00,
2013-07-13 14:45:00,71.2,55.2,30.00,WNW,288,6.0,10.0,57,0.00,,,0.00,Wunderground v.1.15,2013-07-13 21:45:00,
2013-07-13 14:55:00,70.9,52.9,30.00,NW,322,5.0,5.0,53,0.00,,,0.00,Wunderground v.1.15,2013-07-13 21:55:00,
2013-07-13 15:00:00,70.3,52.4,30.00,NW,324,6.0,6.0,53,0.00,,,0.00,Wunderground v.1.15,2013-07-13 22:00:00,
2013-07-13 15:10:00,69.8,52.4,30.00,WNW,298,6.0,6.0,54,0.00,,,0.00,Wunderground v.1.15,2013-07-13 22:10:00,
2013-07-13 15:20:00,70.3,52.4,30.00,NW,323,5.0,5.0,53,0.00,,,0.00,Wunderground v.1.15,2013-07-13 22:20:00,
2013-07-13 15:25:00,70.3,51.8,29.99,NW,314,6.0,6.0,52,0.00,,,0.00,Wunderground v.1.15,2013-07-13 22:25:00,
2013-07-13 15:35:00,69.9,52.5,30.00,West,278,6.0,7.0,54,0.00,,,0.00,Wunderground v.1.15,2013-07-13 22:35:00,
2013-07-13 15:45:00,70.1,52.7,29.99,North,355,5.0,9.0,54,0.00,,,0.00,Wunderground v.1.15,2013-07-13 22:45:00,
2013-07-13 15:55:00,69.3,51.9,29.99,NW,318,6.0,8.0,54,0.00,,,0.00,Wunderground v.1.15,2013-07-13 22:55:00,
2013-07-13 16:00:00,68.8,51.5,29.99,NW,326,7.0,8.0,54,0.00,,,0.00,Wunderground v.1.15,2013-07-13 23:00:00,
2013-07-13 16:10:00,69.2,52.3,29.99,WNW,286,5.0,11.0,55,0.00,,,0.00,Wunderground v.1.15,2013-07-13 23:10:00,
2013-07-13 16:20:00,68.6,52.3,29.99,NW,322,6.0,6.0,56,0.00,,,0.00,Wunderground v.1.15,2013-07-13 23:20:00,
2013-07-13 16:25:00,68.6,52.3,29.99,NNE,12,7.0,9.0,56,0.00,,,0.00,Wunderground v.1.15,2013-07-13 23:25:00,
2013-07-13 16:35:00,68.2,50.9,29.99,WNW,296,7.0,7.0,54,0.00,,,0.00,Wunderground v.1.15,2013-07-13 23:35:00,
2013-07-13 16:45:00,68.5,52.7,29.99,SSE,159,6.0,6.0,57,0.00,,,0.00,Wunderground v.1.15,2013-07-13 23:45:00,
2013-07-13 16:55:00,67.9,50.6,29.99,WNW,292,7.0,11.0,54,0.00,,,0.00,Wunderground v.1.15,2013-07-13 23:55:00,
2013-07-13 17:00:00,67.7,52.4,29.99,North,355,8.0,8.0,58,0.00,,,0.00,Wunderground v.1.15,2013-07-14 00:00:00,
2013-07-13 17:10:00,67.1,50.9,29.99,WNW,293,7.0,10.0,56,0.00,,,0.00,Wunderground v.1.15,2013-07-14 00:10:00,
2013-07-13 17:20:00,66.6,50.4,29.99,WNW,297,8.0,8.0,56,0.00,,,0.00,Wunderground v.1.15,2013-07-14 00:20:00,
2013-07-13 17:25:00,66.6,50.9,29.99,WNW,287,7.0,7.0,57,0.00,,,0.00,Wunderground v.1.15,2013-07-14 00:25:00,
2013-07-13 17:35:00,66.3,50.6,29.99,WNW,299,6.0,14.0,57,0.00,,,0.00,Wunderground v.1.15,2013-07-14 00:35:00,
2013-07-13 17:45:00,66.0,50.8,29.99,NW,305,6.0,9.0,58,0.00,,,0.00,Wunderground v.1.15,2013-07-14 00:45:00,
2013-07-13 17:55:00,65.8,50.6,30.00,NNW,344,5.0,5.0,58,0.00,,,0.00,Wunderground v.1.15,2013-07-14 00:55:00,
2013-07-13 18:00:00,65.6,49.5,30.00,NW,309,6.0,6.0,56,0.00,,,0.00,Wunderground v.1.15,2013-07-14 01:00:00,
2013-07-13 18:10:00,65.3,48.7,30.00,NNW,342,6.0,6.0,55,0.00,,,0.00,Wunderground v.1.15,2013-07-14 01:10:00,
2013-07-13 18:20:00,65.0,49.9,30.00,NNW,348,4.0,6.0,58,0.00,,,0.00,Wunderground v.1.15,2013-07-14 01:20:00,
2013-07-13 18:30:00,65.2,50.0,30.00,West,265,4.0,11.0,58,0.00,,,0.00,Wunderground v.1.15,2013-07-14 01:30:00,
2013-07-13 18:35:00,65.2,50.0,29.99,SW,229,5.0,7.0,58,0.00,,,0.00,Wunderground v.1.15,2013-07-14 01:35:00,
2013-07-13 18:45:00,65.1,50.4,29.99,NW,318,5.0,5.0,59,0.00,,,0.00,Wunderground v.1.15,2013-07-14 01:45:00,
2013-07-13 18:55:00,64.9,50.7,30.00,NW,321,5.0,10.0,60,0.00,,,0.00,Wunderground v.1.15,2013-07-14 01:55:00,
2013-07-13 19:00:00,64.7,50.5,30.00,NW,318,4.0,4.0,60,0.00,,,0.00,Wunderground v.1.15,2013-07-14 02:00:00,
2013-07-13 19:10:00,63.9,50.6,30.00,WNW,287,5.0,5.0,62,0.00,,,0.00,Wunderground v.1.15,2013-07-14 02:10:00,
2013-07-13 19:20:00,63.3,51.3,30.00,NW,315,4.0,4.0,65,0.00,,,0.00,Wunderground v.1.15,2013-07-14 02:20:00,
2013-07-13 19:30:00,62.5,51.4,30.00,NW,319,4.0,4.0,67,0.00,,,0.00,Wunderground v.1.15,2013-07-14 02:30:00,
2013-07-13 19:40:00,61.7,51.0,30.00,WNW,288,4.0,4.0,68,0.00,,,0.00,Wunderground v.1.15,2013-07-14 02:40:00,
2013-07-13 19:50:00,60.4,51.0,30.00,NW,314,3.0,3.0,71,0.00,,,0.00,Wunderground v.1.15,2013-07-14 02:50:00,
2013-07-13 20:00:00,59.7,51.0,30.00,NNW,329,3.0,3.0,73,0.00,,,0.00,Wunderground v.1.15,2013-07-14 03:00:00,
2013-07-13 20:10:00,59.3,51.4,30.01,NNW,343,1.0,1.0,75,0.00,,,0.00,Wunderground v.1.15,2013-07-14 03:10:00,
2013-07-13 20:20:00,58.8,51.2,30.01,West,281,2.0,5.0,76,0.00,,,0.00,Wunderground v.1.15,2013-07-14 03:20:00,
2013-07-13 20:30:00,58.5,51.3,30.01,West,275,1.0,1.0,77,0.00,,,0.00,Wunderground v.1.15,2013-07-14 03:30:00,
2013-07-13 20:35:00,58.3,51.5,30.01,NW,310,1.0,1.0,78,0.00,,,0.00,Wunderground v.1.15,2013-07-14 03:35:00,
2013-07-13 20:45:00,57.7,51.2,30.02,NW,316,0.0,1.0,79,0.00,,,0.00,Wunderground v.1.15,2013-07-14 03:45:00,
2013-07-13 20:55:00,56.9,51.1,30.02,SW,223,0.0,0.0,81,0.00,,,0.00,Wunderground v.1.15,2013-07-14 03:55:00,
2013-07-13 21:00:00,56.6,51.2,30.02,SW,223,0.0,0.0,82,0.00,,,0.00,Wunderground v.1.15,2013-07-14 04:00:00,
2013-07-13 21:05:00,56.3,50.9,30.02,SW,223,0.0,0.0,82,0.00,,,0.00,Wunderground v.1.15,2013-07-14 04:05:00,
2013-07-13 21:10:00,55.9,51.1,30.02,SW,223,0.0,0.0,84,0.00,,,0.00,Wunderground v.1.15,2013-07-14 04:10:00,
2013-07-13 21:15:00,55.6,50.8,30.02,SW,223,0.0,0.0,84,0.00,,,0.00,Wunderground v.1.15,2013-07-14 04:15:00,
2013-07-13 21:25:00,55.1,51.0,30.02,SW,223,0.0,0.0,86,0.00,,,0.00,Wunderground v.1.15,2013-07-14 04:25:00,
2013-07-13 21:30:00,54.8,50.7,30.02,SW,223,0.0,0.0,86,0.00,,,0.00,Wunderground v.1.15,2013-07-14 04:30:00,
2013-07-13 21:35:00,54.6,50.8,30.03,SW,223,0.0,0.0,87,0.00,,,0.00,Wunderground v.1.15,2013-07-14 04:35:00,
2013-07-13 21:40:00,54.4,50.6,30.03,SE,142,0.0,0.0,87,0.00,,,0.00,Wunderground v.1.15,2013-07-14 04:40:00,
2013-07-13 21:50:00,54.1,50.6,30.03,SE,142,0.0,0.0,88,0.00,,,0.00,Wunderground v.1.15,2013-07-14 04:50:00,
2013-07-13 22:00:00,53.8,50.6,30.03,SE,142,0.0,0.0,89,0.00,,,0.00,Wunderground v.1.15,2013-07-14 05:00:00,
2013-07-13 22:10:00,53.5,50.3,30.03,WNW,298,0.0,1.0,89,0.00,,,0.00,Wunderground v.1.15,2013-07-14 05:10:00,
2013-07-13 22:20:00,53.2,50.3,30.03,WNW,297,0.0,0.0,90,0.00,,,0.00,Wunderground v.1.15,2013-07-14 05:20:00,
2013-07-13 22:25:00,53.0,50.1,30.04,WNW,297,0.0,0.0,90,0.00,,,0.00,Wunderground v.1.15,2013-07-14 05:25:00,
2013-07-13 22:35:00,52.7,50.1,30.04,WNW,297,0.0,0.0,91,0.00,,,0.00,Wunderground v.1.15,2013-07-14 05:35:00,
2013-07-13 22:45:00,52.4,49.8,30.04,NNW,345,0.0,0.0,91,0.00,,,0.00,Wunderground v.1.15,2013-07-14 05:45:00,
2013-07-13 22:55:00,52.2,49.9,30.04,NNW,345,0.0,0.0,92,0.00,,,0.00,Wunderground v.1.15,2013-07-14 05:55:00,
2013-07-13 23:00:00,52.1,49.8,30.04,NNW,345,0.0,0.0,92,0.00,,,0.00,Wunderground v.1.15,2013-07-14 06:00:00,
2013-07-13 23:05:00,52.0,49.7,30.04,NNW,345,0.0,0.0,92,0.00,,,0.00,Wunderground v.1.15,2013-07-14 06:05:00,
2013-07-13 23:15:00,51.8,49.8,30.04,NNW,345,0.0,0.0,93,0.00,,,0.00,Wunderground v.1.15,2013-07-14 06:15:00,
2013-07-13 23:25:00,51.7,49.7,30.04,NNW,345,0.0,0.0,93,0.00,,,0.00,Wunderground v.1.15,2013-07-14 06:25:00,
2013-07-13 23:30:00,51.6,49.6,30.04,NNW,345,0.0,0.0,93,0.00,,,0.00,Wunderground v.1.15,2013-07-14 06:30:00,
2013-07-13 23:40:00,51.4,49.4,30.04,NNW,345,0.0,0.0,93,0.00,,,0.00,Wunderground v.1.15,2013-07-14 06:40:00,
2013-07-13 23:50:00,51.1,49.4,30.04,NNW,345,0.0,0.0,94,0.00,,,0.00,Wunderground v.1.15,2013-07-14 06:50:00,